Guantanamo Bay NAS, Cuba
Current Conditions -  °F | °C
As of 3:56 AM on Saturday 25 Oct 2014 (Local Time) from MUGM Reporting Station
Broken Clouds Broken Clouds  
Wind Chill: 83°   Ceiling: 28000
Heat Index: 92°   Visibility: 6mi
Dew Point: 77°   Wind: 14mph
Humidity: 82%   Direction: 210°SSW
Pressure: 29.84"   Gusts: NA
Location:  19.91°N, 75.2°W
Report Text: MUGM 250756Z 21012KT 9999 FEW025 BKN280 28/25 A2984 RMK SLP105 T02830250
Loading
Personal Weather Stations






























Interactive Weather Map
Tropical Storm Tracking
New forecast layout! Learn more

10-Day Weather Forecast

Advertisements
Track Severe Weather on mobile